Terminal Aerodrome Forecast
Issued by NWS Tuscon, AZ

Home | Current Version | Previous Version | Text Only | Print | Product List | Glossary On
Versions: 1 2 3 4 5 6 7 8 9 10 11 12 13 14
534
FTUS45 KTWC 230520
TAFDUG
TAF
KDUG 230520Z 2306/2406 27010KT P6SM BKN130
     FM230900 14008KT P6SM SCT140
     FM231500 32008KT P6SM FEW140
     FM231900 33014G22KT P6SM FEW140 SCT250
     FM240400 32011KT P6SM SCT250=

USA.gov is the U.S. government's official web portal to all federal, state and local government web resources and services.